createdAt,value
2022-10-05T00:01:22.691Z,98.73
2022-10-05T00:03:55.872Z,98.76
2022-10-05T00:06:27.716Z,99.14
2022-10-05T00:08:58.333Z,99.27
2022-10-05T00:11:28.708Z,99.11
2022-10-05T00:13:59.411Z,99.20
2022-10-05T00:16:30.688Z,99.29
2022-10-05T00:19:02.089Z,99.38
2022-10-05T00:21:35.352Z,99.56
2022-10-05T00:24:11.738Z,99.84
2022-10-05T00:26:42.151Z,99.77
2022-10-05T00:29:24.505Z,99.99
2022-10-05T00:31:56.542Z,99.76
2022-10-05T00:34:28.611Z,99.55
2022-10-05T00:37:00.773Z,99.73
2022-10-05T00:39:32.189Z,99.93
2022-10-05T00:42:35.260Z,99.99
2022-10-05T00:45:26.067Z,99.99
2022-10-05T00:48:34.755Z,99.99
2022-10-05T00:51:28.373Z,99.99
2022-10-05T00:54:07.258Z,99.99
2022-10-05T00:56:50.199Z,99.99
2022-10-05T00:59:29.412Z,99.99
2022-10-05T01:02:05.290Z,99.99
2022-10-05T01:04:47.037Z,99.99
2022-10-05T01:07:44.369Z,99.99
2022-10-05T01:10:34.254Z,99.99
2022-10-05T01:13:27.660Z,99.99
2022-10-05T01:16:06.099Z,99.99
2022-10-05T01:19:03.470Z,99.99
2022-10-05T01:21:43.899Z,99.99
2022-10-05T01:24:43.390Z,99.99
2022-10-05T01:27:32.112Z,99.99
2022-10-05T01:30:05.592Z,99.99
2022-10-05T01:32:57.765Z,99.99
2022-10-05T01:36:03.435Z,99.99
2022-10-05T01:38:57.428Z,99.99
2022-10-05T01:41:56.205Z,99.99
2022-10-05T01:44:41.433Z,99.99
2022-10-05T01:47:23.039Z,99.99
2022-10-05T01:50:09.222Z,99.99
2022-10-05T01:52:54.848Z,99.99
2022-10-05T01:55:58.356Z,99.99
2022-10-05T01:58:49.472Z,99.99
2022-10-05T02:01:47.173Z,99.99
2022-10-05T02:05:03.142Z,99.99
2022-10-05T02:08:03.236Z,99.99
2022-10-05T02:11:22.107Z,99.99
2022-10-05T02:13:59.494Z,99.99
2022-10-05T02:16:52.775Z,99.99
2022-10-05T02:19:42.878Z,99.99
2022-10-05T02:22:48.663Z,99.99
2022-10-05T02:25:24.597Z,99.99
2022-10-05T02:28:12.170Z,99.99
2022-10-05T02:30:59.318Z,99.99
2022-10-05T02:33:32.757Z,99.99
2022-10-05T02:36:31.445Z,99.99
2022-10-05T02:39:25.560Z,99.99
2022-10-05T02:42:06.519Z,99.99
2022-10-05T02:45:21.554Z,99.99
2022-10-05T02:48:17.153Z,99.99
2022-10-05T02:51:20.138Z,99.99
2022-10-05T02:54:02.616Z,99.99
2022-10-05T02:56:36.037Z,99.99
2022-10-05T02:59:22.257Z,99.99
2022-10-05T03:01:58.269Z,99.99
2022-10-05T03:05:06.219Z,99.99
2022-10-05T03:07:50.113Z,99.99
2022-10-05T03:10:46.747Z,99.99
2022-10-05T03:13:47.570Z,99.99
2022-10-05T03:16:30.699Z,99.99
2022-10-05T03:19:11.438Z,99.99
2022-10-05T03:22:07.187Z,99.99
2022-10-05T03:24:44.288Z,99.99
2022-10-05T03:27:35.917Z,99.99
2022-10-05T03:30:41.795Z,99.99
2022-10-05T03:33:27.601Z,99.99
2022-10-05T03:36:15.121Z,99.99
2022-10-05T03:39:36.740Z,99.99
2022-10-05T03:42:30.173Z,99.99
2022-10-05T03:45:00.814Z,99.99
2022-10-05T03:47:51.407Z,99.99
2022-10-05T03:50:46.451Z,99.99
2022-10-05T03:53:21.785Z,99.99
2022-10-05T03:55:56.166Z,99.99
2022-10-05T03:58:38.007Z,99.99
2022-10-05T04:01:16.775Z,99.99
2022-10-05T04:04:01.360Z,99.99
2022-10-05T04:06:40.448Z,99.99
2022-10-05T04:09:16.591Z,99.99
2022-10-05T04:12:00.112Z,99.99
2022-10-05T04:14:38.631Z,99.99
2022-10-05T04:17:16.698Z,99.99
2022-10-05T04:20:02.019Z,99.99
2022-10-05T04:22:40.395Z,99.99
2022-10-05T04:25:48.250Z,99.99
2022-10-05T04:28:31.205Z,99.99
2022-10-05T04:31:06.995Z,99.99
2022-10-05T04:33:37.272Z,99.99
2022-10-05T04:36:26.269Z,99.99
2022-10-05T04:39:04.156Z,99.99
2022-10-05T04:41:57.336Z,99.99
2022-10-05T04:44:48.378Z,99.99
2022-10-05T04:47:57.105Z,99.99
2022-10-05T04:50:58.752Z,99.99
2022-10-05T04:53:56.953Z,99.99
2022-10-05T04:56:56.242Z,99.99
2022-10-05T04:59:46.424Z,99.99
2022-10-05T05:02:23.402Z,99.99
2022-10-05T05:05:02.248Z,99.99
2022-10-05T05:07:35.263Z,99.99
2022-10-05T05:10:23.846Z,99.99
2022-10-05T05:13:27.099Z,99.99
2022-10-05T05:16:35.485Z,99.99
2022-10-05T05:19:29.496Z,99.99
2022-10-05T05:22:23.420Z,99.99
2022-10-05T05:25:28.043Z,99.99
2022-10-05T05:28:31.971Z,99.99
2022-10-05T05:31:22.907Z,99.99
2022-10-05T05:33:56.029Z,99.99
2022-10-05T05:36:31.178Z,99.99
2022-10-05T05:39:44.889Z,99.99
2022-10-05T05:42:36.697Z,99.99
2022-10-05T05:45:25.703Z,99.99
2022-10-05T05:48:00.340Z,99.99
2022-10-05T05:50:37.418Z,99.99
2022-10-05T05:53:20.378Z,99.99
2022-10-05T05:55:57.211Z,99.99
2022-10-05T05:58:36.993Z,99.99
2022-10-05T06:01:30.704Z,99.99
2022-10-05T06:04:18.621Z,99.99
2022-10-05T06:06:56.076Z,99.99
2022-10-05T06:09:54.001Z,99.99
2022-10-05T06:12:35.361Z,99.99
2022-10-05T06:15:35.545Z,99.99
2022-10-05T06:18:19.219Z,99.99
2022-10-05T06:21:02.141Z,99.99
2022-10-05T06:23:41.643Z,99.99
2022-10-05T06:26:53.358Z,99.99
2022-10-05T06:29:28.420Z,99.99
2022-10-05T06:32:30.598Z,99.99
2022-10-05T06:35:34.345Z,99.99
2022-10-05T06:38:17.097Z,99.99
2022-10-05T06:41:02.552Z,99.99
2022-10-05T06:43:55.880Z,99.99
2022-10-05T06:46:57.362Z,99.99
2022-10-05T06:49:48.993Z,99.99
2022-10-05T06:52:57.380Z,99.99
2022-10-05T06:55:43.230Z,99.99
2022-10-05T06:58:40.531Z,99.99
2022-10-05T07:01:41.971Z,99.99
2022-10-05T07:04:22.361Z,99.99
2022-10-05T07:07:03.003Z,99.99
2022-10-05T07:09:55.461Z,99.99
2022-10-05T07:12:47.560Z,99.99
2022-10-05T07:15:29.107Z,99.99
2022-10-05T07:18:36.642Z,99.99
2022-10-05T07:21:26.213Z,99.99
2022-10-05T07:24:05.226Z,99.99
2022-10-05T07:26:37.967Z,99.99
2022-10-05T07:29:35.309Z,99.99
2022-10-05T07:32:15.069Z,99.99
2022-10-05T07:34:53.525Z,99.99
2022-10-05T07:37:58.157Z,99.99
2022-10-05T07:40:47.329Z,99.99
2022-10-05T07:43:40.126Z,99.99
2022-10-05T07:46:39.952Z,99.99
2022-10-05T07:49:28.281Z,99.99
2022-10-05T07:52:07.998Z,99.99
2022-10-05T07:55:03.944Z,99.99
2022-10-05T07:57:55.647Z,99.99
2022-10-05T08:00:28.842Z,99.99
2022-10-05T08:03:19.168Z,99.99
2022-10-05T08:05:50.105Z,99.99
2022-10-05T08:08:37.919Z,99.99
2022-10-05T08:11:22.249Z,99.99
2022-10-05T08:14:03.019Z,99.99
2022-10-05T08:16:40.299Z,99.99
2022-10-05T08:19:23.066Z,99.99
2022-10-05T08:22:18.668Z,99.99
2022-10-05T08:25:02.245Z,99.99
2022-10-05T08:27:43.750Z,99.99
2022-10-05T08:30:17.139Z,99.99
2022-10-05T08:33:08.842Z,99.99
2022-10-05T08:35:40.047Z,99.99
2022-10-05T08:38:18.164Z,99.99
2022-10-05T08:41:09.423Z,99.99
2022-10-05T08:44:04.514Z,99.99
2022-10-05T08:47:20.223Z,99.99
2022-10-05T08:49:53.415Z,99.99
2022-10-05T08:52:38.449Z,99.99
2022-10-05T08:55:24.057Z,99.99
2022-10-05T08:58:35.504Z,99.99
2022-10-05T09:01:20.128Z,99.99
2022-10-05T09:03:50.297Z,99.99
2022-10-05T09:06:29.288Z,99.99
2022-10-05T09:09:20.172Z,99.99
2022-10-05T09:12:05.453Z,99.99
2022-10-05T09:15:24.838Z,99.99
2022-10-05T09:18:40.053Z,99.99
2022-10-05T09:21:12.837Z,99.99
2022-10-05T09:23:47.607Z,99.99
2022-10-05T09:26:46.786Z,99.99
2022-10-05T09:29:37.588Z,99.99
2022-10-05T09:32:44.589Z,99.99
2022-10-05T09:35:35.615Z,99.99
2022-10-05T09:38:26.467Z,99.99
2022-10-05T09:41:33.111Z,99.99
2022-10-05T09:44:11.865Z,99.99
2022-10-05T09:46:53.882Z,99.99
2022-10-05T09:49:46.945Z,99.99
2022-10-05T09:52:26.827Z,99.99
2022-10-05T09:55:26.735Z,99.99
2022-10-05T09:58:29.594Z,99.99
2022-10-05T10:01:33.488Z,99.99
2022-10-05T10:04:13.027Z,99.99
2022-10-05T10:07:14.450Z,99.22
2022-10-05T10:10:14.301Z,98.23
2022-10-05T10:12:55.076Z,97.84
2022-10-05T10:15:46.836Z,97.52
2022-10-05T10:18:31.715Z,96.90
2022-10-05T10:21:25.921Z,96.37
2022-10-05T10:24:44.411Z,95.80
2022-10-05T10:27:25.900Z,95.62
2022-10-05T10:30:20.150Z,94.36
2022-10-05T10:33:14.493Z,94.33
2022-10-05T10:36:02.904Z,93.04
2022-10-05T10:39:03.792Z,92.78
2022-10-05T10:41:53.107Z,93.62
2022-10-05T10:45:14.185Z,91.87
2022-10-05T10:48:04.702Z,90.50
2022-10-05T10:50:55.797Z,89.65
2022-10-05T10:53:41.141Z,91.17
2022-10-05T10:56:29.137Z,90.85
2022-10-05T10:59:14.070Z,89.25
2022-10-05T11:02:20.623Z,89.07
2022-10-05T11:05:04.563Z,87.97
2022-10-05T11:08:04.477Z,88.06
2022-10-05T11:10:50.413Z,86.13
2022-10-05T11:13:35.573Z,85.78
2022-10-05T11:16:15.846Z,85.59
2022-10-05T11:19:03.911Z,84.34
2022-10-05T11:21:51.541Z,85.07
2022-10-05T11:24:42.630Z,85.05
2022-10-05T11:27:27.467Z,85.12
2022-10-05T11:30:24.176Z,84.48
2022-10-05T11:33:28.505Z,84.06
2022-10-05T11:36:11.846Z,84.17
2022-10-05T11:38:56.774Z,83.27
2022-10-05T11:41:51.903Z,84.51
2022-10-05T11:44:59.036Z,81.15
2022-10-05T11:47:53.549Z,80.29
2022-10-05T11:50:23.549Z,79.47
2022-10-05T11:52:59.515Z,80.49
2022-10-05T11:55:35.994Z,81.19
2022-10-05T11:58:37.050Z,79.61
2022-10-05T12:01:33.188Z,79.50
2022-10-05T12:04:22.762Z,79.76
2022-10-05T12:07:06.311Z,78.62
2022-10-05T12:10:07.664Z,78.77
2022-10-05T12:12:45.367Z,78.29
2022-10-05T12:15:32.218Z,78.40
2022-10-05T12:18:14.644Z,77.12
2022-10-05T12:21:21.774Z,78.96
2022-10-05T12:24:00.407Z,76.90
2022-10-05T12:26:47.987Z,75.74
2022-10-05T12:29:35.017Z,75.88
2022-10-05T12:32:05.331Z,74.54
2022-10-05T12:35:01.440Z,75.13
2022-10-05T12:37:56.979Z,76.15
2022-10-05T12:40:47.870Z,73.06
2022-10-05T12:43:48.126Z,73.64
2022-10-05T12:46:42.711Z,70.83
2022-10-05T12:49:37.104Z,69.66
2022-10-05T12:52:13.329Z,71.84
2022-10-05T12:54:59.861Z,71.03
2022-10-05T12:57:36.124Z,72.44
2022-10-05T13:00:20.309Z,72.08
2022-10-05T13:03:10.341Z,70.60
2022-10-05T13:06:02.487Z,71.03
2022-10-05T13:08:39.367Z,71.44
2022-10-05T13:11:29.964Z,72.39
2022-10-05T13:14:22.239Z,70.71
2022-10-05T13:17:05.534Z,71.62
2022-10-05T13:19:49.509Z,71.82
2022-10-05T13:22:23.399Z,71.02
2022-10-05T13:25:22.506Z,71.84
2022-10-05T13:28:18.259Z,69.82
2022-10-05T13:31:06.365Z,71.37
2022-10-05T13:34:03.356Z,69.67
2022-10-05T13:36:40.666Z,71.32
2022-10-05T13:39:51.352Z,70.59
2022-10-05T13:42:36.229Z,69.65
2022-10-05T13:45:18.601Z,70.83
2022-10-05T13:48:09.423Z,68.53
2022-10-05T13:50:56.581Z,68.00
2022-10-05T13:54:16.673Z,66.54
2022-10-05T13:56:54.281Z,65.86
2022-10-05T13:59:39.624Z,65.31
2022-10-05T14:02:23.933Z,64.79
2022-10-05T14:04:59.806Z,68.97
2022-10-05T14:07:52.685Z,63.00
2022-10-05T14:10:32.622Z,63.54
2022-10-05T14:13:18.663Z,62.48
2022-10-05T14:16:06.520Z,62.46
2022-10-05T14:18:39.809Z,61.65
2022-10-05T14:21:09.949Z,60.92
2022-10-05T14:23:40.137Z,61.88
2022-10-05T14:26:28.571Z,63.98
2022-10-05T14:29:26.094Z,62.20
2022-10-05T14:32:01.512Z,61.48
2022-10-05T14:34:36.138Z,62.27
2022-10-05T14:37:23.935Z,62.57
2022-10-05T14:40:03.729Z,61.72
2022-10-05T14:42:47.076Z,62.42
2022-10-05T14:45:26.652Z,60.31
2022-10-05T14:48:02.833Z,58.50
2022-10-05T14:50:34.137Z,59.56
2022-10-05T14:53:22.640Z,58.84
2022-10-05T14:56:29.272Z,59.59
2022-10-05T14:59:06.416Z,59.34
2022-10-05T15:01:40.361Z,59.64
2022-10-05T15:04:31.788Z,59.93
2022-10-05T15:07:12.424Z,59.46
2022-10-05T15:10:16.273Z,60.82
2022-10-05T15:12:49.590Z,60.20
2022-10-05T15:15:40.841Z,61.01
2022-10-05T15:18:30.959Z,60.11
2022-10-05T15:21:27.653Z,61.85
2022-10-05T15:24:09.696Z,61.99
2022-10-05T15:26:56.141Z,61.15
2022-10-05T15:29:52.066Z,61.86
2022-10-05T15:32:31.443Z,61.14
2022-10-05T15:35:02.769Z,59.31
2022-10-05T15:37:48.891Z,60.17
2022-10-05T15:40:48.838Z,60.66
2022-10-05T15:43:22.652Z,60.72
2022-10-05T15:46:32.951Z,61.22
2022-10-05T15:49:13.314Z,60.20
2022-10-05T15:51:51.893Z,59.42
2022-10-05T15:54:45.716Z,60.07
2022-10-05T15:57:21.274Z,60.47
2022-10-05T16:00:11.434Z,61.72
2022-10-05T16:03:00.270Z,61.58
2022-10-05T16:05:53.657Z,59.78
2022-10-05T16:08:55.315Z,60.68
2022-10-05T16:11:52.616Z,60.89
2022-10-05T16:14:44.381Z,61.58
2022-10-05T16:17:23.197Z,61.44
2022-10-05T16:20:21.827Z,61.66
2022-10-05T16:23:03.820Z,60.45
2022-10-05T16:26:15.842Z,62.08
2022-10-05T16:29:03.684Z,60.81
2022-10-05T16:31:38.631Z,59.61
2022-10-05T16:34:34.764Z,62.01
2022-10-05T16:37:13.828Z,62.67
2022-10-05T16:40:02.767Z,62.68
2022-10-05T16:42:54.747Z,62.56
2022-10-05T16:45:45.008Z,62.34
2022-10-05T16:48:27.638Z,63.09
2022-10-05T16:51:30.035Z,62.65
2022-10-05T16:54:12.917Z,62.72
2022-10-05T16:57:05.558Z,62.45
2022-10-05T16:59:41.544Z,62.70
2022-10-05T17:02:44.681Z,64.13
2022-10-05T17:05:21.236Z,63.71
2022-10-05T17:08:10.158Z,62.87
2022-10-05T17:10:58.182Z,64.12
2022-10-05T17:13:44.671Z,65.62
2022-10-05T17:16:47.512Z,64.72
2022-10-05T17:20:10.783Z,64.59
2022-10-05T17:23:06.550Z,64.74
2022-10-05T17:25:51.271Z,65.38
2022-10-05T17:28:46.347Z,65.53
2022-10-05T17:31:22.889Z,65.80
2022-10-05T17:34:01.705Z,66.13
2022-10-05T17:36:48.678Z,66.19
2022-10-05T17:39:24.676Z,66.22
2022-10-05T17:41:55.566Z,65.34
2022-10-05T17:44:27.214Z,65.65
2022-10-05T17:47:02.542Z,65.49
2022-10-05T17:49:49.616Z,66.63
2022-10-05T17:52:46.783Z,66.37
2022-10-05T17:55:31.271Z,67.16
2022-10-05T17:58:23.080Z,67.40
2022-10-05T18:00:59.602Z,68.43
2022-10-05T18:03:44.661Z,68.49
2022-10-05T18:06:39.496Z,68.90
2022-10-05T18:09:23.066Z,68.91
2022-10-05T18:12:19.013Z,69.39
2022-10-05T18:15:07.259Z,69.82
2022-10-05T18:17:42.239Z,70.05
2022-10-05T18:20:29.964Z,70.23
2022-10-05T18:23:07.376Z,70.52
2022-10-05T18:25:49.162Z,70.70
2022-10-05T18:28:58.166Z,70.41
2022-10-05T18:31:35.245Z,71.26
2022-10-05T18:34:37.907Z,70.90
2022-10-05T18:37:39.539Z,71.09
2022-10-05T18:40:26.082Z,71.24
2022-10-05T18:43:17.883Z,71.16
2022-10-05T18:46:07.048Z,71.29
2022-10-05T18:48:39.866Z,72.05
2022-10-05T18:51:52.627Z,73.07
2022-10-05T18:54:44.992Z,72.86
2022-10-05T18:57:42.737Z,73.05
2022-10-05T19:00:20.427Z,73.55
2022-10-05T19:02:58.308Z,73.50
2022-10-05T19:05:49.392Z,74.75
2022-10-05T19:08:43.178Z,74.65
2022-10-05T19:11:25.214Z,75.32
2022-10-05T19:14:32.003Z,74.62
2022-10-05T19:17:27.872Z,74.90
2022-10-05T19:20:27.239Z,74.81
2022-10-05T19:23:37.437Z,75.62
2022-10-05T19:26:31.407Z,76.03
2022-10-05T19:29:04.584Z,75.85
2022-10-05T19:32:03.776Z,75.62
2022-10-05T19:34:49.921Z,76.21
2022-10-05T19:37:52.555Z,75.94
2022-10-05T19:40:23.266Z,76.24
2022-10-05T19:43:13.835Z,76.58
2022-10-05T19:46:19.967Z,76.95
2022-10-05T19:48:54.864Z,77.01
2022-10-05T19:51:32.271Z,77.32
2022-10-05T19:54:11.575Z,77.98
2022-10-05T19:56:56.125Z,78.28
2022-10-05T19:59:33.555Z,78.58
2022-10-05T20:02:06.201Z,78.28
2022-10-05T20:04:39.403Z,78.03
2022-10-05T20:07:16.468Z,79.04
2022-10-05T20:10:01.879Z,78.98
2022-10-05T20:13:01.683Z,78.61
2022-10-05T20:15:55.537Z,78.47
2022-10-05T20:19:05.615Z,78.37
2022-10-05T20:21:41.719Z,78.78
2022-10-05T20:24:26.663Z,78.56
2022-10-05T20:27:08.767Z,78.87
2022-10-05T20:29:44.386Z,78.97
2022-10-05T20:32:19.074Z,79.11
2022-10-05T20:34:50.680Z,79.19
2022-10-05T20:37:21.752Z,78.73
2022-10-05T20:39:55.239Z,77.31
2022-10-05T20:42:25.486Z,77.54
2022-10-05T20:44:56.959Z,77.77
2022-10-05T20:47:28.762Z,77.86
2022-10-05T20:49:59.086Z,77.93
2022-10-05T20:52:28.892Z,78.31
2022-10-05T20:55:00.488Z,78.72
2022-10-05T20:57:30.935Z,78.84
2022-10-05T21:00:01.542Z,79.10
2022-10-05T21:02:32.350Z,79.28
2022-10-05T21:05:02.359Z,79.31
2022-10-05T21:07:35.232Z,79.76
2022-10-05T21:10:06.819Z,79.78
2022-10-05T21:12:37.098Z,80.06
2022-10-05T21:15:07.545Z,80.35
2022-10-05T21:17:37.471Z,80.47
2022-10-05T21:20:12.345Z,80.85
2022-10-05T21:22:43.065Z,80.96
2022-10-05T21:25:13.053Z,80.77
2022-10-05T21:27:42.949Z,81.02
2022-10-05T21:30:13.534Z,81.14
2022-10-05T21:32:44.578Z,81.82
2022-10-05T21:35:15.079Z,81.45
2022-10-05T21:37:44.892Z,81.70
2022-10-05T21:40:15.127Z,81.84
2022-10-05T21:42:44.963Z,81.95
2022-10-05T21:45:15.251Z,81.92
2022-10-05T21:47:45.022Z,82.19
2022-10-05T21:50:14.925Z,82.32
2022-10-05T21:52:45.013Z,82.13
2022-10-05T21:55:15.212Z,82.48
2022-10-05T21:57:46.744Z,82.62
2022-10-05T22:00:17.802Z,83.08
2022-10-05T22:02:47.619Z,82.66
2022-10-05T22:05:17.545Z,83.06
2022-10-05T22:07:47.767Z,83.38
2022-10-05T22:10:17.701Z,85.71
2022-10-05T22:12:48.365Z,85.92
2022-10-05T22:15:18.290Z,83.95
2022-10-05T22:17:48.141Z,83.70
2022-10-05T22:20:18.173Z,83.86
2022-10-05T22:22:48.521Z,84.44
2022-10-05T22:25:18.896Z,83.50
2022-10-05T22:27:49.719Z,82.61
2022-10-05T22:30:19.826Z,82.86
2022-10-05T22:32:49.923Z,83.00
2022-10-05T22:35:19.725Z,82.87
2022-10-05T22:37:50.908Z,83.54
2022-10-05T22:40:21.936Z,83.47
2022-10-05T22:42:54.538Z,83.78
2022-10-05T22:45:28.058Z,84.07
2022-10-05T22:48:00.454Z,84.16
2022-10-05T22:50:30.735Z,84.46
2022-10-05T22:53:00.887Z,84.76
2022-10-05T22:55:30.835Z,84.99
2022-10-05T22:58:00.693Z,85.00
2022-10-05T23:00:53.331Z,85.84
2022-10-05T23:03:21.145Z,86.28
2022-10-05T23:06:04.751Z,87.56
2022-10-05T23:08:36.907Z,87.89
2022-10-05T23:11:18.216Z,86.47
2022-10-05T23:13:51.992Z,84.99
2022-10-05T23:16:24.504Z,85.75
2022-10-05T23:18:57.115Z,84.80
2022-10-05T23:21:31.145Z,85.08
2022-10-05T23:24:01.781Z,85.47
2022-10-05T23:26:32.983Z,86.73
2022-10-05T23:29:03.374Z,88.18
2022-10-05T23:31:34.730Z,88.75
2022-10-05T23:34:05.504Z,88.74
2022-10-05T23:36:35.747Z,86.95
2022-10-05T23:39:05.598Z,85.98
2022-10-05T23:41:35.708Z,87.23
2022-10-05T23:44:05.502Z,88.31
2022-10-05T23:46:35.342Z,88.06
2022-10-05T23:49:05.655Z,87.81
2022-10-05T23:51:35.579Z,86.64
2022-10-05T23:54:05.944Z,87.25
2022-10-05T23:56:36.407Z,87.73
2022-10-05T23:59:07.754Z,86.80
